Time;durP1;ratioP1;P1;durP2;ratioP2;P2;SDS_P1;SDS_P2;PMS_P1;PMS_P2;Temp;Humidity;BMP_temperature;BMP_pressure;BME280_temperature;BME280_humidity;BME280_pressure;Samples;Min_cycle;Max_cycle;Signal;HPM_P1;HPM_P2
2022/07/27 00:00:22;;;;;;;3.33;1.10;;;;;;;14.12;71.68;102157.97;5038054;28;20029;-71
2022/07/27 00:02:48;;;;;;;3.85;1.35;;;;;;;14.04;72.48;102159.97;5040604;28;20303;-69
2022/07/27 00:05:14;;;;;;;1.20;0.80;;;;;;;14.03;72.38;102156.34;5026197;28;20145;-69
2022/07/27 00:07:39;;;;;;;4.10;1.30;;;;;;;13.98;72.40;102158.81;5037405;28;20399;-70
2022/07/27 00:10:05;;;;;;;1.93;1.00;;;;;;;13.90;72.95;102161.66;5037297;28;20037;-70
2022/07/27 00:12:30;;;;;;;5.37;1.33;;;;;;;13.87;73.51;102152.91;5035079;28;20017;-69
2022/07/27 00:14:57;;;;;;;6.63;1.43;;;;;;;13.92;72.65;102154.03;5040145;28;20120;-69
2022/07/27 00:17:26;;;;;;;1.83;0.95;;;;;;;13.86;73.33;102156.69;5045094;28;20032;-72
2022/07/27 00:19:51;;;;;;;4.03;1.20;;;;;;;13.89;73.02;102153.56;5039056;28;20109;-71
2022/07/27 00:22:17;;;;;;;2.83;1.27;;;;;;;13.85;72.78;102157.72;5029982;28;20057;-68
2022/07/27 00:24:42;;;;;;;6.67;1.27;;;;;;;13.82;73.20;102158.97;5035919;28;20029;-69
2022/07/27 00:27:08;;;;;;;6.30;1.77;;;;;;;13.73;73.86;102159.22;5038579;28;20107;-69
2022/07/27 00:29:33;;;;;;;5.47;1.43;;;;;;;13.74;73.94;102155.44;5035652;28;20769;-69
2022/07/27 00:31:59;;;;;;;4.97;1.53;;;;;;;13.70;73.77;102157.69;5032500;28;20048;-70
2022/07/27 00:34:24;;;;;;;1.90;1.07;;;;;;;13.72;73.89;102155.59;5031477;28;20489;-71
2022/07/27 00:36:49;;;;;;;3.60;1.30;;;;;;;13.72;73.28;102155.59;5039298;28;20021;-69
2022/07/27 00:39:15;;;;;;;7.40;1.13;;;;;;;13.68;74.05;102156.16;5040653;28;20566;-70
2022/07/27 00:41:40;;;;;;;3.37;1.53;;;;;;;13.68;74.35;102156.16;5034865;28;20037;-69
2022/07/27 00:44:06;;;;;;;5.87;1.73;;;;;;;13.64;74.71;102149.31;5041250;28;20109;-69
2022/07/27 00:46:31;;;;;;;2.53;0.93;;;;;;;13.59;74.05;102149.00;5031206;28;20033;-70
2022/07/27 00:48:57;;;;;;;2.53;1.23;;;;;;;13.64;74.52;102155.69;5033306;28;20194;-70
2022/07/27 00:51:24;;;;;;;5.23;1.83;;;;;;;13.59;74.93;102146.25;5033295;28;20041;-71
2022/07/27 00:53:51;;;;;;;3.53;1.13;;;;;;;13.62;74.39;102156.91;5040250;28;20515;-70
2022/07/27 00:56:17;;;;;;;8.43;1.88;;;;;;;13.55;75.21;102145.78;5031245;28;20112;-72
2022/07/27 00:58:47;;;;;;;4.18;1.13;;;;;;;13.57;75.02;102156.63;5032620;28;20118;-70
2022/07/27 01:01:13;;;;;;;6.22;1.20;;;;;;;13.56;74.80;102146.66;5041553;28;20040;-72
2022/07/27 01:03:38;;;;;;;4.23;1.43;;;;;;;13.51;74.55;102154.59;5039346;28;20579;-72
2022/07/27 01:06:04;;;;;;;2.63;1.10;;;;;;;13.44;75.20;102156.38;5048583;28;20033;-72
2022/07/27 01:08:29;;;;;;;2.53;1.20;;;;;;;13.47;75.67;102151.38;5040480;28;20029;-73
2022/07/27 01:10:56;;;;;;;7.13;1.20;;;;;;;13.40;75.22;102144.88;5030312;28;20033;-74
2022/07/27 01:13:22;;;;;;;;;;;;;;;13.43;74.34;102146.38;5033266;28;20556;-72
2022/07/27 01:15:48;;;;;;;3.28;0.95;;;;;;;13.39;75.80;102145.06;5033267;28;19924;-72
2022/07/27 01:18:35;;;;;;;2.63;1.00;;;;;;;13.47;75.19;102145.88;5032953;28;20032;-73
2022/07/27 01:21:03;;;;;;;1.55;0.88;;;;;;;13.57;74.77;102146.47;5048664;28;20032;-73
2022/07/27 01:23:31;;;;;;;2.28;1.00;;;;;;;13.63;75.14;102156.75;5031263;28;20078;-72
2022/07/27 01:25:57;;;;;;;4.63;1.23;;;;;;;13.67;74.76;102160.81;5041371;28;20029;-73
2022/07/27 01:28:22;;;;;;;4.53;2.13;;;;;;;13.71;74.93;102150.31;5036822;28;20029;-72
2022/07/27 01:30:48;;;;;;;5.90;1.50;;;;;;;13.75;75.22;102152.50;5029581;28;20365;-72
2022/07/27 01:33:13;;;;;;;5.47;1.03;;;;;;;13.88;74.68;102155.44;5028764;28;20031;-73
2022/07/27 01:35:39;;;;;;;1.40;0.90;;;;;;;13.99;73.73;102140.38;5029834;28;20041;-73
2022/07/27 01:38:06;;;;;;;6.63;1.33;;;;;;;14.01;73.53;102141.03;5039817;28;20091;-73
2022/07/27 01:40:32;;;;;;;2.63;1.02;;;;;;;14.03;73.20;102141.72;5032109;28;20037;-73
2022/07/27 01:42:58;;;;;;;3.20;1.07;;;;;;;14.00;73.80;102142.09;5034398;28;20025;-73
2022/07/27 01:45:23;;;;;;;1.27;0.90;;;;;;;14.03;74.70;102141.72;5041277;28;20285;-74
2022/07/27 01:47:49;;;;;;;4.67;0.87;;;;;;;14.01;73.45;102136.41;5041683;28;20037;-73
2022/07/27 01:50:14;;;;;;;2.27;0.80;;;;;;;13.91;74.05;102140.44;5030141;28;20033;-73
2022/07/27 01:52:39;;;;;;;4.90;1.30;;;;;;;13.87;75.31;102133.63;5041067;28;20033;-73
2022/07/27 01:55:09;;;;;;;1.43;1.00;;;;;;;13.81;74.72;102134.34;5029414;28;20025;-73
2022/07/27 01:57:35;;;;;;;3.42;1.08;;;;;;;13.76;75.31;102131.34;5044143;28;20083;-72
2022/07/27 02:00:02;;;;;;;3.90;1.13;;;;;;;13.71;75.88;102139.28;5040932;28;20036;-74
2022/07/27 02:02:28;;;;;;;1.48;0.85;;;;;;;13.69;75.58;102144.09;5038715;28;20045;-73
2022/07/27 02:04:53;;;;;;;3.83;1.30;;;;;;;13.47;76.81;102131.22;5035468;28;20083;-73
2022/07/27 02:07:18;;;;;;;4.33;1.23;;;;;;;13.39;76.95;102134.91;5030465;28;20064;-73
2022/07/27 02:09:44;;;;;;;2.10;1.30;;;;;;;13.35;76.57;102138.22;5037053;28;20166;-73
2022/07/27 02:14:54;;;;;;;5.32;1.00;;;;;;;13.19;77.74;102128.16;5029201;28;20502;-72
2022/07/27 02:17:19;;;;;;;2.20;0.90;;;;;;;13.17;78.07;102129.38;5041150;28;20025;-73
2022/07/27 02:19:45;;;;;;;2.73;1.20;;;;;;;13.09;77.96;102132.22;5046184;28;20029;-72
2022/07/27 02:22:10;;;;;;;5.70;1.30;;;;;;;13.07;78.14;102128.78;5039406;28;20025;-73
2022/07/27 02:24:36;;;;;;;2.93;1.00;;;;;;;13.04;77.60;102132.78;5035552;28;20406;-73
2022/07/27 02:27:02;;;;;;;3.30;1.10;;;;;;;12.99;78.21;102126.94;5054024;28;20034;-74
2022/07/27 02:29:29;;;;;;;5.93;1.50;;;;;;;12.93;78.49;102121.28;5031730;28;20366;-73
2022/07/27 02:31:54;;;;;;;2.65;1.08;;;;;;;12.89;79.16;102120.78;5040314;28;20527;-73
2022/07/27 02:34:20;;;;;;;2.83;1.10;;;;;;;12.83;79.02;102126.16;5040164;28;20081;-74
2022/07/27 02:36:45;;;;;;;1.57;0.90;;;;;;;12.80;78.50;102121.88;5046302;28;20400;-73
2022/07/27 02:39:11;;;;;;;5.20;1.40;;;;;;;12.76;78.38;102130.66;5045583;28;20022;-73
2022/07/27 02:41:36;;;;;;;5.50;1.00;;;;;;;12.77;79.86;102115.88;5037522;28;20059;-73
2022/07/27 02:44:02;;;;;;;1.77;0.90;;;;;;;12.70;80.04;102125.88;5035515;28;20032;-73
2022/07/27 02:46:27;;;;;;;3.00;0.97;;;;;;;12.65;79.53;102112.66;5030936;28;20060;-73
2022/07/27 02:48:52;;;;;;;3.53;1.17;;;;;;;12.64;79.69;102121.13;5042383;28;20036;-73
2022/07/27 02:51:18;;;;;;;7.67;1.33;;;;;;;12.62;79.33;102112.16;5041199;28;20025;-74
2022/07/27 02:53:43;;;;;;;7.30;1.57;;;;;;;12.61;80.97;102122.34;5033134;28;20487;-74
2022/07/27 02:56:09;;;;;;;4.50;1.20;;;;;;;12.51;80.75;102115.31;5028815;28;20045;-74
2022/07/27 02:58:34;;;;;;;14.77;1.47;;;;;;;12.51;81.01;102112.56;5032535;28;20036;-73
2022/07/27 03:01:00;;;;;;;3.50;1.03;;;;;;;12.48;80.50;102115.69;5039094;28;20029;-73
2022/07/27 03:03:25;;;;;;;2.27;0.97;;;;;;;12.43;80.55;102118.13;5037682;28;20665;-74
2022/07/27 03:05:51;;;;;;;2.37;1.23;;;;;;;12.43;81.10;102118.97;5044978;28;20146;-73
2022/07/27 03:08:16;;;;;;;4.10;1.10;;;;;;;12.36;81.58;102112.47;5034364;28;20033;-73
2022/07/27 03:10:41;;;;;;;2.37;1.13;;;;;;;12.41;81.47;102110.03;5028828;28;20063;-73
2022/07/27 03:13:07;;;;;;;2.87;0.93;;;;;;;12.37;79.76;102116.06;5034332;28;20029;-73
2022/07/27 03:15:33;;;;;;;3.60;1.10;;;;;;;12.33;82.02;102118.31;5032399;28;20415;-73
2022/07/27 03:17:59;;;;;;;2.20;1.00;;;;;;;12.26;81.27;102119.19;5040135;28;20041;-73
2022/07/27 03:20:25;;;;;;;4.20;1.25;;;;;;;12.37;80.77;102122.41;5028793;28;20425;-74
2022/07/27 03:22:50;;;;;;;4.83;1.37;;;;;;;12.26;81.18;102116.44;5039052;28;20026;-72
2022/07/27 03:25:15;;;;;;;3.83;1.03;;;;;;;12.34;80.94;102113.69;5031284;28;20077;-73
2022/07/27 03:27:41;;;;;;;1.07;1.00;;;;;;;12.41;81.35;102114.66;5040733;28;20116;-74
2022/07/27 03:30:07;;;;;;;3.23;1.17;;;;;;;12.45;80.99;102116.91;5028115;28;20481;-73
2022/07/27 03:32:32;;;;;;;2.37;0.90;;;;;;;12.47;81.24;102113.94;5028257;28;20041;-73
2022/07/27 03:34:57;;;;;;;4.47;1.63;;;;;;;12.47;81.04;102109.34;5035627;28;20630;-73
2022/07/27 03:37:23;;;;;;;9.50;1.30;;;;;;;12.53;81.25;102111.34;5040017;28;20507;-73
2022/07/27 03:39:48;;;;;;;2.63;1.20;;;;;;;12.59;80.84;102107.88;5031149;28;20029;-74
2022/07/27 03:42:13;;;;;;;2.60;0.83;;;;;;;12.66;80.33;102105.28;5032058;28;20120;-72
2022/07/27 03:44:38;;;;;;;3.50;1.37;;;;;;;12.71;81.27;102119.34;5028844;28;20064;-74
2022/07/27 03:47:04;;;;;;;1.93;1.20;;;;;;;12.71;80.68;102114.69;5029480;28;20065;-73
2022/07/27 03:49:30;;;;;;;4.50;1.00;;;;;;;12.68;80.64;102114.19;5029486;28;20503;-73
2022/07/27 03:51:56;;;;;;;3.90;1.15;;;;;;;12.61;80.69;102125.06;5034696;28;20079;-74
2022/07/27 03:54:21;;;;;;;4.37;1.13;;;;;;;12.59;80.92;102126.28;5037419;28;20029;-74
2022/07/27 03:56:46;;;;;;;2.93;1.10;;;;;;;12.60;81.63;102120.59;5043126;28;20033;-74
2022/07/27 03:59:12;;;;;;;2.23;1.23;;;;;;;12.71;81.03;102117.44;5027686;28;20133;-73
2022/07/27 04:01:37;;;;;;;2.57;0.93;;;;;;;12.79;81.15;102120.16;5027628;28;20034;-76
2022/07/27 04:04:03;;;;;;;3.70;1.10;;;;;;;12.95;81.45;102120.06;5030557;28;20481;-76
2022/07/27 04:06:28;;;;;;;3.80;1.20;;;;;;;12.96;80.97;102127.31;5047326;28;20029;-75
2022/07/27 04:08:54;;;;;;;6.83;1.20;;;;;;;13.03;80.33;102127.44;5039975;28;20064;-75
2022/07/27 04:11:19;;;;;;;2.47;1.00;;;;;;;13.17;79.62;102134.88;5034366;28;20380;-76
2022/07/27 04:13:47;;;;;;;1.73;0.87;;;;;;;13.25;79.73;102132.97;5029840;28;20084;-75
2022/07/27 04:16:13;;;;;;;2.65;1.00;;;;;;;13.44;79.18;102135.19;5039737;28;20032;-75
2022/07/27 04:18:38;;;;;;;4.73;1.17;;;;;;;13.71;77.76;102139.28;5029174;28;20520;-76
2022/07/27 04:21:05;;;;;;;7.70;1.20;;;;;;;13.90;76.92;102133.25;5033379;28;20036;-75
2022/07/27 04:23:31;;;;;;;2.92;1.02;;;;;;;14.03;76.80;102130.72;5036633;28;20026;-76
2022/07/27 04:25:57;;;;;;;4.68;1.00;;;;;;;14.21;76.19;102139.47;5029626;28;20041;-75
2022/07/27 04:28:22;;;;;;;3.97;1.00;;;;;;;14.29;75.81;102145.75;5032908;28;20405;-76
2022/07/27 04:30:48;;;;;;;3.23;1.20;;;;;;;14.30;76.22;102143.88;5029536;28;20080;-75
2022/07/27 04:33:14;;;;;;;7.57;1.23;;;;;;;14.27;76.12;102139.59;5035630;28;20128;-75
2022/07/27 04:35:39;;;;;;;5.33;2.00;;;;;;;14.29;77.02;102128.34;5034435;28;20565;-76
2022/07/27 04:38:04;;;;;;;1.50;0.87;;;;;;;14.28;77.31;102135.78;5028666;28;20029;-76
2022/07/27 04:40:31;;;;;;;3.90;0.93;;;;;;;14.31;78.02;102126.28;5028922;28;20033;-74
2022/07/27 04:42:57;;;;;;;5.35;1.08;;;;;;;14.34;78.74;102131.41;5039552;28;20021;-75
2022/07/27 04:45:23;;;;;;;4.10;0.77;;;;;;;14.36;78.50;102141.19;5031855;28;20034;-75
2022/07/27 04:47:48;;;;;;;3.50;0.90;;;;;;;14.37;78.73;102144.81;5033278;28;20064;-76
2022/07/27 04:50:13;;;;;;;6.50;1.17;;;;;;;14.40;79.25;102155.47;5038853;28;20036;-76
2022/07/27 04:52:39;;;;;;;3.47;0.97;;;;;;;14.52;78.48;102156.69;5033460;28;20040;-76
2022/07/27 04:55:04;;;;;;;6.30;1.77;;;;;;;14.62;77.38;102152.59;5034810;28;20529;-75
2022/07/27 04:57:30;;;;;;;2.03;0.80;;;;;;;14.60;76.91;102153.81;5036685;28;20032;-74
2022/07/27 04:59:55;;;;;;;9.27;1.10;;;;;;;14.62;76.99;102147.06;5034082;28;20143;-75
2022/07/27 05:02:20;;;;;;;5.40;1.20;;;;;;;14.62;77.47;102146.22;5030103;28;20512;-75
2022/07/27 05:04:46;;;;;;;8.37;1.70;;;;;;;14.63;76.65;102154.28;5041004;28;20043;-75
2022/07/27 05:07:12;;;;;;;4.43;0.93;;;;;;;14.66;75.00;102153.91;5031076;28;20029;-75
2022/07/27 05:09:38;;;;;;;2.70;0.98;;;;;;;14.71;73.98;102154.22;5034367;28;20032;-75
2022/07/27 05:12:03;;;;;;;4.80;1.00;;;;;;;14.76;75.10;102145.34;5038391;28;20033;-75
2022/07/27 05:14:28;;;;;;;4.00;1.20;;;;;;;14.83;76.11;102154.59;5045281;28;20037;-76
2022/07/27 05:16:53;;;;;;;4.93;0.93;;;;;;;14.84;76.11;102153.53;5033835;28;20492;-75
2022/07/27 05:19:19;;;;;;;2.10;0.93;;;;;;;14.96;76.27;102158.34;5037858;28;20086;-75
2022/07/27 05:21:44;;;;;;;3.63;0.80;;;;;;;15.05;74.71;102159.09;5037710;28;20059;-74
2022/07/27 05:24:10;;;;;;;2.50;1.03;;;;;;;14.99;74.31;102163.47;5045267;28;20040;-75
2022/07/27 05:26:35;;;;;;;4.10;1.00;;;;;;;15.16;72.81;102155.81;5038502;28;20095;-76
2022/07/27 05:29:01;;;;;;;3.27;0.97;;;;;;;15.19;73.51;102170.09;5038772;28;20112;-75
2022/07/27 05:31:26;;;;;;;1.67;1.00;;;;;;;15.22;72.38;102171.59;5029350;28;20041;-75
2022/07/27 05:33:52;;;;;;;1.07;0.90;;;;;;;15.32;71.78;102172.97;5028772;28;20034;-74
2022/07/27 05:36:17;;;;;;;2.00;0.87;;;;;;;15.34;72.01;102181.97;5042171;28;20044;-75
2022/07/27 05:38:42;;;;;;;3.07;0.90;;;;;;;15.42;71.94;102175.47;5039072;28;20037;-74
2022/07/27 05:41:09;;;;;;;3.13;0.87;;;;;;;15.48;71.17;102174.69;5040652;28;20519;-75
2022/07/27 05:43:34;;;;;;;4.93;0.98;;;;;;;15.67;71.11;102176.78;5030777;28;20060;-75
2022/07/27 05:46:00;;;;;;;6.30;1.03;;;;;;;15.63;70.99;102170.78;5028548;28;20073;-75
2022/07/27 05:48:26;;;;;;;8.73;1.20;;;;;;;15.62;71.44;102173.75;5025448;28;20037;-73
2022/07/27 05:50:51;;;;;;;4.33;1.63;;;;;;;15.65;71.74;102187.19;5026676;28;20029;-72
2022/07/27 05:53:17;;;;;;;2.67;0.93;;;;;;;15.60;70.23;102186.91;5038046;28;20112;-74
2022/07/27 05:55:42;;;;;;;6.53;1.30;;;;;;;15.65;70.19;102184.41;5028498;28;20127;-74
2022/07/27 05:58:07;;;;;;;3.33;1.07;;;;;;;15.78;69.97;102190.06;5034557;28;20025;-75
2022/07/27 06:00:33;;;;;;;6.03;1.17;;;;;;;15.84;70.05;102183.75;5033827;28;20055;-74
2022/07/27 06:02:58;;;;;;;7.87;1.10;;;;;;;15.84;69.28;102192.03;5044321;28;20518;-75
2022/07/27 06:05:23;;;;;;;6.87;1.00;;;;;;;15.92;69.21;102191.88;5048405;28;20037;-73
2022/07/27 06:07:59;;;;;;;2.97;1.33;;;;;;;16.08;68.93;102186.94;5049802;28;20410;-75
2022/07/27 06:10:30;;;;;;;5.65;1.10;;;;;;;16.15;69.50;102187.84;5046491;28;20111;-74
2022/07/27 06:12:56;;;;;;;1.35;0.77;;;;;;;16.27;68.91;102185.38;5049020;28;20108;-75
2022/07/27 06:15:23;;;;;;;5.20;1.10;;;;;;;16.42;68.96;102173.16;5043219;28;20120;-75
2022/07/27 06:17:51;;;;;;;5.90;1.08;;;;;;;16.63;67.70;102184.16;5029539;28;20033;-75
2022/07/27 06:20:17;;;;;;;5.60;1.00;;;;;;;16.80;67.01;102181.91;5037781;28;20041;-74
2022/07/27 06:22:48;;;;;;;7.77;1.60;;;;;;;16.89;67.22;102186.19;5028765;28;20056;-75
2022/07/27 06:25:14;;;;;;;7.65;1.75;;;;;;;17.01;66.65;102185.41;5028966;28;20266;-73
2022/07/27 06:27:40;;;;;;;2.10;1.20;;;;;;;17.17;66.36;102192.50;5027385;28;20145;-75
2022/07/27 06:30:06;;;;;;;3.93;1.70;;;;;;;17.55;64.79;102177.09;5033385;28;20195;-75
2022/07/27 06:32:31;;;;;;;31.90;3.08;;;;;;;17.40;65.59;102193.03;5028596;28;20284;-74
2022/07/27 06:34:58;;;;;;;4.63;1.47;;;;;;;17.52;64.00;102194.13;5033272;28;20029;-75
2022/07/27 06:37:26;;;;;;;7.97;1.40;;;;;;;17.45;65.04;102198.81;5034532;28;20033;-74
2022/07/27 06:39:51;;;;;;;2.35;1.30;;;;;;;17.49;63.86;102198.19;5029362;28;20025;-75
2022/07/27 06:42:16;;;;;;;3.90;1.20;;;;;;;17.34;64.78;102197.44;5031435;28;20544;-74
2022/07/27 06:44:42;;;;;;;25.40;2.73;;;;;;;17.16;64.66;102204.63;5028899;28;20476;-73
2022/07/27 06:47:07;;;;;;;25.47;2.17;;;;;;;17.08;64.70;102202.06;5030342;28;20128;-74
2022/07/27 06:49:32;;;;;;;27.87;3.13;;;;;;;16.94;65.77;102200.28;5034062;28;20030;-74
2022/07/27 06:51:57;;;;;;;14.50;2.20;;;;;;;16.92;64.94;102200.47;5033456;28;20108;-75
2022/07/27 06:54:23;;;;;;;5.57;2.07;;;;;;;17.00;65.19;102200.31;5029333;28;20037;-75
2022/07/27 06:56:48;;;;;;;5.57;1.17;;;;;;;17.01;64.80;102202.03;5034775;28;20061;-76
2022/07/27 06:59:14;;;;;;;5.27;1.23;;;;;;;16.99;64.01;102212.47;5034277;28;20061;-74
2022/07/27 07:01:39;;;;;;;4.20;1.00;;;;;;;16.97;63.30;102213.72;5028600;28;20100;-73
2022/07/27 07:04:04;;;;;;;12.43;1.63;;;;;;;16.90;63.32;102218.34;5027752;28;20457;-74
2022/07/27 07:06:29;;;;;;;17.33;2.40;;;;;;;16.79;62.80;102208.72;5035180;28;20057;-73
2022/07/27 07:08:55;;;;;;;6.83;1.67;;;;;;;16.79;63.78;102216.16;5034255;28;20033;-74
2022/07/27 07:11:22;;;;;;;4.00;1.33;;;;;;;16.80;64.24;102213.19;5028289;28;20021;-73
2022/07/27 07:13:48;;;;;;;3.95;1.63;;;;;;;16.86;63.06;102222.63;5033017;28;20120;-75
2022/07/27 07:16:13;;;;;;;17.33;1.80;;;;;;;16.98;63.23;102216.25;5026946;28;20449;-74
2022/07/27 07:18:39;;;;;;;3.93;1.40;;;;;;;17.04;62.81;102212.69;5030055;28;20292;-74
2022/07/27 07:21:04;;;;;;;2.40;0.80;;;;;;;17.38;62.30;102223.72;5033076;28;20035;-74
2022/07/27 07:23:32;;;;;;;6.47;1.10;;;;;;;17.74;60.77;102228.94;5034756;28;20017;-73
2022/07/27 07:25:57;;;;;;;5.88;1.17;;;;;;;17.63;62.39;102224.00;5030270;28;20034;-72
2022/07/27 07:28:22;;;;;;;7.67;1.67;;;;;;;17.67;63.47;102222.53;5028039;28;20491;-72
2022/07/27 07:30:48;;;;;;;6.73;1.30;;;;;;;17.54;64.21;102220.56;5027362;28;20035;-76
2022/07/27 07:33:14;;;;;;;2.80;1.10;;;;;;;17.69;63.56;102226.78;5033981;28;20052;-75
2022/07/27 07:35:40;;;;;;;8.30;1.67;;;;;;;17.92;62.95;102231.97;5027880;28;20486;-75
2022/07/27 07:38:05;;;;;;;10.75;1.77;;;;;;;18.27;62.35;102231.53;5032094;28;20052;-74
2022/07/27 07:40:31;;;;;;;9.43;1.60;;;;;;;18.63;61.92;102239.44;5033688;28;20042;-75
2022/07/27 07:43:01;;;;;;;2.50;1.27;;;;;;;18.60;61.34;102237.09;5040283;28;20060;-74
2022/07/27 07:45:29;;;;;;;5.80;1.30;;;;;;;18.62;61.13;102240.50;5027075;28;20098;-73
2022/07/27 07:47:55;;;;;;;2.65;1.30;;;;;;;18.67;60.34;102235.16;5030067;28;20033;-74
2022/07/27 07:50:21;;;;;;;5.45;1.52;;;;;;;18.98;60.80;102238.91;5036682;28;20261;-74
2022/07/27 07:52:48;;;;;;;6.32;1.30;;;;;;;18.68;60.24;102234.09;5028113;28;20397;-74
2022/07/27 07:55:14;;;;;;;4.55;1.50;;;;;;;19.11;59.91;102240.81;5033998;28;20033;-73
2022/07/27 07:57:39;;;;;;;0.97;0.73;;;;;;;19.28;58.62;102236.50;5047135;28;20704;-72
2022/07/27 08:00:06;;;;;;;3.17;1.10;;;;;;;18.94;58.86;102234.88;5042606;28;20371;-74
2022/07/27 08:02:32;;;;;;;6.65;1.65;;;;;;;18.67;59.51;102230.44;5028906;28;20040;-73
2022/07/27 08:04:57;;;;;;;8.37;1.73;;;;;;;18.68;59.40;102240.47;5043479;28;20033;-74
2022/07/27 08:07:22;;;;;;;3.70;1.00;;;;;;;18.60;60.15;102239.84;5035151;28;20364;-73
2022/07/27 08:09:48;;;;;;;5.70;1.70;;;;;;;18.64;60.21;102233.69;5039462;28;20041;-74
2022/07/27 08:12:13;;;;;;;2.73;1.27;;;;;;;18.57;60.63;102238.38;5026578;28;20025;-74
2022/07/27 08:14:40;;;;;;;7.97;1.47;;;;;;;18.49;59.75;102238.59;5040538;28;20068;-74
2022/07/27 08:17:06;;;;;;;;;;;;;;;18.83;58.98;102241.09;5029799;28;20029;-73
2022/07/27 08:19:31;;;;;;;5.75;1.38;;;;;;;19.22;58.23;102246.56;5027340;28;20019;-72
2022/07/27 08:21:57;;;;;;;3.77;1.20;;;;;;;19.80;58.45;102248.19;5027810;28;20116;-73
2022/07/27 08:24:22;;;;;;;3.23;1.10;;;;;;;20.31;56.79;102248.03;5034555;28;20033;-74
2022/07/27 08:26:47;;;;;;;6.13;1.33;;;;;;;20.41;54.77;102243.69;5025320;28;20037;-73
2022/07/27 08:29:12;;;;;;;4.17;1.13;;;;;;;20.38;55.77;102243.28;5029830;28;20025;-73
2022/07/27 08:31:38;;;;;;;4.03;1.20;;;;;;;20.59;52.98;102252.06;5030081;28;20056;-74
2022/07/27 08:34:03;;;;;;;5.90;1.00;;;;;;;20.31;53.15;102260.03;5029741;28;20091;-74
2022/07/27 08:36:29;;;;;;;8.90;1.80;;;;;;;20.20;53.06;102268.25;5031577;28;20033;-73
2022/07/27 08:38:54;;;;;;;3.90;1.03;;;;;;;20.36;52.26;102254.66;5039549;28;20037;-75
2022/07/27 08:41:23;;;;;;;7.30;1.37;;;;;;;20.22;50.65;102255.00;5027305;28;20036;-74
2022/07/27 08:43:49;;;;;;;5.93;1.67;;;;;;;20.11;51.95;102259.34;5027781;28;20030;-74
2022/07/27 08:46:17;;;;;;;4.27;1.50;;;;;;;20.43;50.01;102255.44;5041069;28;20071;-73
2022/07/27 08:48:42;;;;;;;6.95;1.33;;;;;;;20.43;49.70;102246.25;5038816;28;20044;-76
2022/07/27 08:51:08;;;;;;;6.33;1.33;;;;;;;21.02;51.19;102252.09;5041084;28;20080;-72
2022/07/27 08:53:34;;;;;;;6.97;1.13;;;;;;;21.15;48.92;102246.38;5029991;28;20064;-73
2022/07/27 08:55:59;;;;;;;5.63;1.43;;;;;;;21.79;47.75;102249.41;5046646;28;20390;-74
2022/07/27 08:58:25;;;;;;;5.28;1.20;;;;;;;21.66;46.88;102244.00;5029838;28;20026;-74
2022/07/27 09:00:51;;;;;;;3.15;1.17;;;;;;;20.70;47.23;102237.41;5036529;28;20041;-73
2022/07/27 09:03:19;;;;;;;4.85;1.02;;;;;;;21.16;47.28;102228.56;5030667;28;20397;-73
2022/07/27 09:05:49;;;;;;;3.03;1.42;;;;;;;21.65;45.34;102239.47;5042449;28;20090;-74
2022/07/27 09:08:26;;;;;;;3.55;1.02;;;;;;;21.65;46.63;102242.25;5028370;28;20080;-74
2022/07/27 09:10:53;;;;;;;;;;;;;;;21.93;46.23;102237.78;5028509;28;20381;-73
2022/07/27 09:13:20;;;;;;;6.95;1.20;;;;;;;21.39;48.00;102234.28;5030553;28;19917;-74
2022/07/27 09:15:48;;;;;;;4.13;1.00;;;;;;;21.08;49.17;102237.25;5030155;28;20408;-74
2022/07/27 09:18:19;;;;;;;5.28;1.50;;;;;;;20.60;48.11;102233.44;5028835;28;20037;-73
2022/07/27 09:20:45;;;;;;;4.95;1.20;;;;;;;20.51;48.97;102243.16;5037100;28;20514;-74
2022/07/27 09:23:11;;;;;;;4.28;1.30;;;;;;;20.48;49.16;102238.91;5033256;28;20544;-74
2022/07/27 09:25:38;;;;;;;8.37;1.43;;;;;;;20.62;47.38;102237.72;5036353;28;20152;-72
2022/07/27 09:28:04;;;;;;;6.63;0.90;;;;;;;21.13;44.61;102231.81;5043826;28;20696;-75
2022/07/27 09:30:29;;;;;;;5.87;1.70;;;;;;;21.40;42.56;102225.66;5032246;28;20116;-74
2022/07/27 09:33:00;;;;;;;3.20;1.53;;;;;;;21.25;43.74;102229.94;5040338;28;20064;-75
2022/07/27 09:35:33;;;;;;;3.95;1.05;;;;;;;22.20;41.73;102227.06;5043425;28;20025;-74
2022/07/27 09:38:21;;;;;;;2.25;0.90;;;;;;;22.74;39.07;102223.97;5041741;28;20065;-73
2022/07/27 09:40:57;;;;;;;6.30;1.02;;;;;;;23.03;37.58;102217.38;5034575;28;20040;-75
2022/07/27 09:43:22;;;;;;;5.85;1.00;;;;;;;23.09;36.99;102219.19;5048850;28;20456;-75
2022/07/27 09:45:47;;;;;;;6.10;0.93;;;;;;;22.79;37.03;102219.34;5039733;28;20060;-75
2022/07/27 09:48:16;;;;;;;4.60;1.20;;;;;;;22.87;37.74;102215.34;5040903;28;20041;-74
2022/07/27 09:50:45;;;;;;;4.68;1.10;;;;;;;22.59;41.39;102229.22;5026451;28;20064;-75
2022/07/27 09:53:21;;;;;;;6.53;1.45;;;;;;;21.85;43.15;102232.56;5026954;28;20025;-75
2022/07/27 09:55:57;;;;;;;9.35;1.08;;;;;;;21.71;44.32;102235.81;5041285;28;20041;-75
2022/07/27 09:58:39;;;;;;;8.73;1.58;;;;;;;21.35;44.51;102244.19;5029665;28;20107;-76
2022/07/27 10:01:06;;;;;;;4.10;1.25;;;;;;;21.29;46.05;102240.38;5029001;28;20030;-75
2022/07/27 10:03:31;;;;;;;8.77;1.35;;;;;;;21.41;45.82;102238.53;5038215;28;20028;-75
2022/07/27 10:05:57;;;;;;;2.47;1.00;;;;;;;21.01;44.89;102240.09;5038407;28;20037;-76
2022/07/27 10:08:23;;;;;;;4.53;1.20;;;;;;;20.92;46.07;102241.47;5033768;28;20065;-75
2022/07/27 10:10:48;;;;;;;4.00;1.23;;;;;;;21.18;46.10;102230.03;5028912;28;20030;-75
2022/07/27 10:13:14;;;;;;;1.80;1.37;;;;;;;21.35;45.11;102235.84;5025331;28;20053;-76
2022/07/27 10:15:40;;;;;;;5.50;1.20;;;;;;;21.02;45.45;102236.22;5034334;28;20088;-75
2022/07/27 10:18:13;;;;;;;3.15;0.90;;;;;;;21.08;45.21;102237.25;5033990;28;20137;-76
2022/07/27 10:20:41;;;;;;;3.88;1.52;;;;;;;20.79;44.44;102224.03;5028316;28;20037;-75
2022/07/27 10:23:07;;;;;;;4.70;1.33;;;;;;;20.67;44.42;102221.16;5031214;28;20147;-76
2022/07/27 10:25:34;;;;;;;3.28;0.82;;;;;;;20.94;45.06;102225.41;5033127;28;20025;-75
2022/07/27 10:28:11;;;;;;;3.10;1.00;;;;;;;21.16;44.47;102220.19;5039588;28;20048;-75
2022/07/27 10:30:37;;;;;;;3.20;1.33;;;;;;;21.50;43.83;102223.16;5041019;28;20034;-75
2022/07/27 10:33:37;;;;;;;4.85;1.70;;;;;;;21.99;43.49;102214.50;5028551;28;20029;-75
2022/07/27 10:36:03;;;;;;;5.30;1.10;;;;;;;22.13;41.89;102221.59;5028904;28;20124;-74
2022/07/27 10:38:43;;;;;;;;;;;;;;;22.54;40.18;102212.31;5031026;28;20489;-75
2022/07/27 10:41:21;;;;;;;5.50;0.90;;;;;;;22.88;40.04;102201.13;5032201;28;20000;-75
2022/07/27 10:43:46;;;;;;;5.13;1.60;;;;;;;22.72;40.07;102215.84;5034176;28;20389;-74
2022/07/27 10:46:18;;;;;;;3.07;0.80;;;;;;;23.23;39.15;102210.34;5032898;28;20026;-74
2022/07/27 10:48:44;;;;;;;3.15;1.20;;;;;;;23.68;37.68;102208.44;5029349;28;20022;-74
2022/07/27 10:51:09;;;;;;;9.77;1.10;;;;;;;24.08;37.66;102205.59;5027718;28;20029;-75
2022/07/27 10:53:37;;;;;;;3.40;1.40;;;;;;;23.59;37.94;102209.09;5029352;28;20036;-75
2022/07/27 10:56:05;;;;;;;4.05;1.10;;;;;;;22.41;40.40;102201.38;5038762;28;20326;-75
2022/07/27 10:58:30;;;;;;;3.33;1.30;;;;;;;22.05;41.12;102202.41;5034031;28;20120;-75
2022/07/27 11:01:05;;;;;;;4.90;0.90;;;;;;;22.05;40.99;102205.22;5030261;28;20108;-75
2022/07/27 11:03:33;;;;;;;5.88;1.45;;;;;;;21.62;42.62;102203.69;5027811;28;20453;-73
2022/07/27 11:06:09;;;;;;;5.57;1.48;;;;;;;21.88;42.15;102208.91;5026800;28;20538;-73
2022/07/27 11:08:40;;;;;;;7.32;1.30;;;;;;;21.61;42.02;102204.78;5026885;28;20025;-75
2022/07/27 11:11:07;;;;;;;3.83;1.88;;;;;;;21.78;41.08;102205.84;5039291;28;20018;-75
2022/07/27 11:13:33;;;;;;;4.05;1.20;;;;;;;21.31;40.26;102206.72;5039430;28;20025;-74
2022/07/27 11:16:05;;;;;;;3.90;1.20;;;;;;;21.36;41.06;102207.72;5036468;28;20029;-74
2022/07/27 11:18:36;;;;;;;5.50;1.42;;;;;;;21.75;40.41;102209.09;5028431;28;20056;-74
2022/07/27 11:21:20;;;;;;;2.97;0.90;;;;;;;22.37;39.60;102212.19;5027617;28;20522;-74
2022/07/27 11:23:48;;;;;;;4.00;1.15;;;;;;;22.17;39.41;102208.00;5027932;28;20396;-74
2022/07/27 11:26:14;;;;;;;5.15;1.60;;;;;;;21.42;42.50;102217.94;5026116;28;20109;-74